Time;durP1;ratioP1;P1;durP2;ratioP2;P2;SDS_P1;SDS_P2;PMS_P1;PMS_P2;Temp;Humidity;BMP_temperature;BMP_pressure;BME280_temperature;BME280_humidity;BME280_pressure;Samples;Min_cycle;Max_cycle;Signal;HPM_P1;HPM_P2
2022/06/11 00:02:21;;;;;;;4.75;3.00;;;19.70;73.20;;;;;;5049387;28;20122;-68
2022/06/11 00:04:47;;;;;;;4.25;3.10;;;19.60;73.00;;;;;;5048202;28;20086;-68
2022/06/11 00:07:19;;;;;;;5.60;2.47;;;19.50;72.80;;;;;;5049128;28;20118;-68
2022/06/11 00:09:45;;;;;;;4.30;2.50;;;19.50;72.70;;;;;;5048709;28;20067;-68
2022/06/11 00:12:12;;;;;;;2.05;1.80;;;19.50;72.60;;;;;;5048732;28;20048;-68
2022/06/11 00:14:39;;;;;;;2.95;2.03;;;19.50;72.40;;;;;;5046752;28;20041;-68
2022/06/11 00:17:07;;;;;;;2.83;1.80;;;19.40;72.20;;;;;;5047407;28;20017;-68
2022/06/11 00:19:33;;;;;;;2.60;1.80;;;19.40;72.10;;;;;;5048840;28;20043;-68
2022/06/11 00:21:59;;;;;;;1.73;1.50;;;19.40;72.10;;;;;;5048210;28;20037;-69
2022/06/11 00:24:27;;;;;;;2.58;1.50;;;19.40;72.00;;;;;;5048378;28;20029;-69
2022/06/11 00:26:54;;;;;;;3.15;1.60;;;19.40;72.00;;;;;;5045757;28;20094;-69
2022/06/11 00:29:22;;;;;;;2.22;1.60;;;19.30;71.90;;;;;;5048513;28;20020;-69
2022/06/11 00:31:48;;;;;;;2.67;1.58;;;19.30;71.90;;;;;;5047920;28;20029;-70
2022/06/11 00:34:14;;;;;;;2.50;1.40;;;19.30;71.90;;;;;;5048385;28;20040;-69
2022/06/11 00:36:40;;;;;;;2.72;1.60;;;19.20;71.90;;;;;;5045758;28;20039;-69
2022/06/11 00:39:07;;;;;;;2.22;1.30;;;19.20;72.00;;;;;;5046735;28;20060;-69
2022/06/11 00:41:35;;;;;;;2.13;1.40;;;19.20;72.10;;;;;;5048032;28;20032;-70
2022/06/11 00:44:01;;;;;;;3.35;1.60;;;19.10;72.10;;;;;;5048263;28;20675;-70
2022/06/11 00:46:59;;;;;;;2.22;1.67;;;19.10;72.10;;;;;;5045666;28;20131;-71
2022/06/11 00:49:37;;;;;;;2.40;1.80;;;19.10;72.10;;;;;;5046431;28;20029;-70
2022/06/11 00:52:10;;;;;;;3.92;2.13;;;19.10;72.20;;;;;;5048066;28;20021;-71
2022/06/11 00:54:39;;;;;;;2.88;2.05;;;19.00;72.20;;;;;;5047606;28;20633;-70
2022/06/11 00:57:05;;;;;;;2.42;1.83;;;19.00;72.50;;;;;;5047676;28;20112;-70
2022/06/11 00:59:37;;;;;;;2.88;2.28;;;18.90;72.50;;;;;;5047363;28;20112;-70
2022/06/11 01:02:03;;;;;;;4.07;1.83;;;18.90;72.70;;;;;;5047488;28;20017;-71
2022/06/11 01:04:48;;;;;;;4.00;1.90;;;18.90;72.70;;;;;;5047095;28;20120;-68
2022/06/11 01:07:47;;;;;;;4.03;2.38;;;18.90;72.80;;;;;;5046631;28;20036;-69
2022/06/11 01:10:37;;;;;;;4.20;2.60;;;18.80;73.10;;;;;;5045700;28;20029;-69
2022/06/11 01:13:30;;;;;;;5.25;2.72;;;18.70;73.40;;;;;;5078748;28;20017;-70
2022/06/11 01:16:00;;;;;;;4.63;2.75;;;18.70;73.50;;;;;;5051575;28;20028;-69
2022/06/11 01:18:55;;;;;;;3.60;2.50;;;18.60;73.70;;;;;;5051720;28;20029;-70
2022/06/11 01:21:33;;;;;;;2.85;2.55;;;18.60;73.90;;;;;;5054112;28;20021;-71
2022/06/11 01:24:22;;;;;;;3.97;2.33;;;18.50;73.90;;;;;;5051125;28;20075;-71
2022/06/11 01:26:54;;;;;;;2.55;2.00;;;18.50;74.10;;;;;;5051178;28;20028;-73
2022/06/11 01:29:50;;;;;;;3.53;2.50;;;18.50;74.10;;;;;;5053028;28;20036;-73
2022/06/11 01:32:50;;;;;;;4.38;2.35;;;18.40;74.20;;;;;;5051835;28;20031;-72
2022/06/11 01:35:31;;;;;;;4.38;2.55;;;18.40;74.20;;;;;;5049913;28;20048;-72
2022/06/11 01:38:06;;;;;;;4.93;2.70;;;18.40;74.20;;;;;;5052102;28;20051;-72
2022/06/11 01:40:53;;;;;;;4.65;2.55;;;18.40;74.30;;;;;;5050056;28;20081;-72
2022/06/11 01:43:31;;;;;;;3.05;2.40;;;18.30;74.50;;;;;;5050089;28;20021;-71
2022/06/11 01:45:59;;;;;;;3.70;2.55;;;18.30;74.60;;;;;;5051344;28;20029;-70
2022/06/11 01:48:28;;;;;;;4.00;3.00;;;18.30;74.60;;;;;;5050749;28;20021;-71
2022/06/11 01:51:03;;;;;;;4.70;3.47;;;18.20;74.70;;;;;;5047756;28;20418;-71
2022/06/11 01:54:16;;;;;;;6.53;3.80;;;18.20;74.90;;;;;;5050123;28;20021;-70
2022/06/11 01:56:56;;;;;;;4.85;3.50;;;18.20;74.90;;;;;;5048738;28;20041;-71
2022/06/11 01:59:58;;;;;;;3.88;2.70;;;18.10;74.90;;;;;;5052709;28;20540;-70
2022/06/11 02:02:41;;;;;;;2.97;2.50;;;18.10;75.00;;;;;;5046694;28;20033;-74
2022/06/11 02:05:16;;;;;;;3.25;2.70;;;18.00;75.10;;;;;;5050877;28;20032;-74
2022/06/11 02:08:16;;;;;;;4.68;3.22;;;18.00;75.40;;;;;;5050126;28;20506;-73
2022/06/11 02:10:51;;;;;;;3.33;2.40;;;18.00;75.50;;;;;;5050078;28;20399;-74
2022/06/11 02:13:39;;;;;;;4.03;2.90;;;18.00;75.60;;;;;;5050912;28;20044;-73
2022/06/11 02:16:17;;;;;;;3.90;2.55;;;17.90;75.60;;;;;;5050029;28;20951;-74
2022/06/11 02:18:46;;;;;;;2.72;2.30;;;17.90;75.70;;;;;;5048415;28;20037;-72
2022/06/11 02:21:16;;;;;;;2.50;2.30;;;17.80;75.70;;;;;;5049028;28;20029;-73
2022/06/11 02:23:49;;;;;;;5.38;3.20;;;17.80;75.80;;;;;;5050661;28;20029;-72
2022/06/11 02:26:20;;;;;;;4.75;3.00;;;17.80;76.00;;;;;;5048823;28;20099;-72
2022/06/11 02:28:47;;;;;;;3.23;2.90;;;17.70;76.20;;;;;;5050366;28;20039;-71
2022/06/11 02:31:16;;;;;;;2.83;2.60;;;17.70;76.30;;;;;;5048370;28;20280;-72
2022/06/11 02:33:43;;;;;;;5.13;3.08;;;17.70;76.40;;;;;;5051093;28;20071;-68
2022/06/11 02:36:12;;;;;;;4.05;3.10;;;17.70;76.30;;;;;;5050360;28;20052;-68
2022/06/11 02:38:38;;;;;;;3.47;2.88;;;17.70;76.50;;;;;;5050973;28;20226;-67
2022/06/11 02:41:09;;;;;;;7.28;4.20;;;17.60;76.40;;;;;;5049503;28;20522;-68
2022/06/11 02:43:34;;;;;;;4.45;3.13;;;17.60;76.50;;;;;;5050899;28;20029;-68
2022/06/11 02:46:41;;;;;;;5.35;3.00;;;17.60;76.50;;;;;;5051012;28;20025;-68
2022/06/11 02:48:46;;;;;;;3.42;2.65;;;17.60;76.60;;;;;;5049785;28;20036;-69
2022/06/11 02:51:12;;;;;;;3.78;2.65;;;17.60;76.60;;;;;;5050148;28;20025;-69
2022/06/11 02:53:37;;;;;;;5.30;2.60;;;17.50;76.50;;;;;;5049629;28;20017;-69
2022/06/11 02:56:03;;;;;;;4.80;2.80;;;17.60;76.70;;;;;;5083267;28;20032;-69
2022/06/11 02:58:29;;;;;;;4.35;2.80;;;17.50;76.60;;;;;;5050296;28;20013;-70
2022/06/11 03:00:55;;;;;;;3.05;2.75;;;17.50;76.60;;;;;;5050487;28;20045;-71
2022/06/11 03:03:22;;;;;;;2.85;2.40;;;17.50;76.60;;;;;;5049861;28;20498;-69
2022/06/11 03:05:47;;;;;;;3.10;2.55;;;17.50;76.60;;;;;;5050392;28;20302;-68
2022/06/11 03:08:13;;;;;;;4.60;3.00;;;17.50;76.50;;;;;;5050272;28;20052;-68
2022/06/11 03:10:38;;;;;;;3.70;2.60;;;17.50;76.60;;;;;;5050414;28;20024;-69
2022/06/11 03:13:05;;;;;;;5.05;3.17;;;17.40;76.70;;;;;;5050367;28;20016;-70
2022/06/11 03:15:31;;;;;;;4.03;3.10;;;17.40;76.80;;;;;;5049545;28;20025;-70
2022/06/11 03:17:58;;;;;;;3.35;2.70;;;17.30;76.90;;;;;;5049925;28;20036;-70
2022/06/11 03:20:27;;;;;;;4.07;3.55;;;17.30;77.00;;;;;;5048608;28;20024;-70
2022/06/11 03:22:52;;;;;;;3.95;2.92;;;17.30;77.30;;;;;;5048449;28;20033;-69
2022/06/11 03:25:18;;;;;;;5.35;2.80;;;17.30;77.30;;;;;;5049055;28;20401;-69
2022/06/11 03:27:44;;;;;;;3.55;2.58;;;17.30;77.40;;;;;;5049526;28;20104;-68
2022/06/11 03:30:12;;;;;;;5.22;3.90;;;17.20;77.40;;;;;;5049529;28;20017;-69
2022/06/11 03:32:38;;;;;;;5.43;3.47;;;17.20;77.90;;;;;;5048805;28;20391;-68
2022/06/11 03:35:05;;;;;;;5.75;3.33;;;17.20;78.10;;;;;;5048635;28;20383;-70
2022/06/11 03:37:31;;;;;;;4.32;3.00;;;17.10;78.10;;;;;;5048334;28;20108;-69
2022/06/11 03:39:57;;;;;;;4.72;3.00;;;17.10;78.20;;;;;;5047186;28;20107;-70
2022/06/11 03:42:23;;;;;;;3.80;3.40;;;17.10;78.10;;;;;;5048827;28;20060;-69
2022/06/11 03:44:48;;;;;;;3.63;2.80;;;17.20;78.10;;;;;;5049002;28;20394;-72
2022/06/11 03:47:14;;;;;;;4.72;3.45;;;17.10;78.10;;;;;;5047590;28;20510;-71
2022/06/11 03:49:39;;;;;;;4.22;2.78;;;17.10;78.10;;;;;;5047638;28;20115;-71
2022/06/11 03:52:06;;;;;;;4.85;3.10;;;17.10;78.20;;;;;;5049172;28;20052;-69
2022/06/11 03:54:31;;;;;;;3.10;2.80;;;17.10;78.20;;;;;;5048873;28;20094;-70
2022/06/11 03:56:57;;;;;;;4.70;2.75;;;17.10;78.10;;;;;;5049407;28;20056;-70
2022/06/11 03:59:23;;;;;;;5.63;2.80;;;17.10;78.10;;;;;;5049117;28;20028;-70
2022/06/11 04:01:49;;;;;;;3.53;2.45;;;17.10;78.20;;;;;;5049359;28;20395;-72
2022/06/11 04:04:18;;;;;;;5.22;2.67;;;17.10;78.10;;;;;;5050034;28;20029;-71
2022/06/11 04:06:48;;;;;;;4.28;3.00;;;17.10;78.10;;;;;;5050148;28;20111;-69
2022/06/11 04:09:27;;;;;;;3.72;2.72;;;17.10;78.20;;;;;;5048575;28;20112;-71
2022/06/11 04:11:53;;;;;;;3.25;2.47;;;17.10;78.20;;;;;;5049077;28;20052;-71
2022/06/11 04:14:18;;;;;;;3.90;2.65;;;17.10;78.20;;;;;;5050446;28;20037;-71
2022/06/11 04:16:52;;;;;;;3.20;2.20;;;17.10;78.10;;;;;;5049532;28;20106;-71
2022/06/11 04:19:29;;;;;;;4.38;2.85;;;17.10;78.00;;;;;;5047124;28;20098;-71
2022/06/11 04:21:56;;;;;;;3.88;2.47;;;17.10;78.00;;;;;;5047988;28;20058;-72
2022/06/11 04:24:23;;;;;;;5.93;2.30;;;17.10;77.80;;;;;;5053277;28;20053;-74
2022/06/11 04:26:51;;;;;;;5.40;2.70;;;17.10;77.70;;;;;;5049360;28;20017;-73
2022/06/11 04:29:22;;;;;;;2.97;2.08;;;17.10;77.50;;;;;;5048622;28;20020;-73
2022/06/11 04:31:49;;;;;;;5.47;2.30;;;17.20;77.40;;;;;;5047852;28;20109;-74
2022/06/11 04:34:16;;;;;;;4.57;2.13;;;17.20;77.10;;;;;;5049428;28;20116;-72
2022/06/11 04:36:44;;;;;;;5.82;2.40;;;17.20;76.80;;;;;;5049109;28;20037;-72
2022/06/11 04:39:13;;;;;;;4.20;1.90;;;17.20;76.40;;;;;;5058580;28;20490;-72
2022/06/11 04:41:39;;;;;;;5.45;2.30;;;17.20;76.80;;;;;;5048241;28;20033;-73
2022/06/11 04:44:05;;;;;;;4.82;1.73;;;17.20;75.90;;;;;;5047431;28;20033;-71
2022/06/11 04:46:31;;;;;;;6.25;1.80;;;17.20;75.60;;;;;;5048306;28;20371;-71
2022/06/11 04:48:57;;;;;;;5.20;1.73;;;17.20;75.40;;;;;;5046325;28;20166;-74
2022/06/11 04:51:23;;;;;;;4.55;1.60;;;17.30;75.20;;;;;;5048253;28;20483;-73
2022/06/11 04:53:49;;;;;;;5.45;1.63;;;17.70;74.40;;;;;;5047777;28;20024;-70
2022/06/11 04:56:19;;;;;;;6.15;1.85;;;18.20;72.90;;;;;;5048286;28;20387;-69
2022/06/11 04:58:45;;;;;;;5.88;2.13;;;18.60;71.40;;;;;;5047510;28;20365;-70
2022/06/11 05:01:11;;;;;;;5.53;1.80;;;19.10;70.10;;;;;;5047766;28;20025;-70
2022/06/11 05:03:37;;;;;;;5.97;1.52;;;19.40;68.60;;;;;;5046577;28;20498;-70
2022/06/11 05:06:03;;;;;;;7.85;1.80;;;19.70;67.70;;;;;;5047965;28;20043;-70
2022/06/11 05:08:29;;;;;;;5.22;1.60;;;20.00;66.90;;;;;;5047542;28;20032;-70
2022/06/11 05:10:55;;;;;;;5.20;1.75;;;20.30;65.70;;;;;;5048349;28;20402;-70
2022/06/11 05:13:21;;;;;;;3.90;1.73;;;20.50;65.00;;;;;;5048153;28;20082;-70
2022/06/11 05:15:50;;;;;;;4.68;1.60;;;20.70;64.10;;;;;;5047771;28;20033;-69
2022/06/11 05:18:17;;;;;;;6.85;1.92;;;21.00;63.80;;;;;;5046506;28;20025;-70
2022/06/11 05:20:44;;;;;;;6.88;1.90;;;21.00;62.90;;;;;;5051406;28;20319;-70
2022/06/11 05:23:10;;;;;;;5.32;1.92;;;21.00;62.80;;;;;;5059481;28;20021;-71
2022/06/11 05:25:38;;;;;;;5.93;1.90;;;21.10;62.70;;;;;;5057877;28;20078;-72
2022/06/11 05:28:06;;;;;;;4.20;1.70;;;21.20;62.20;;;;;;5054022;28;20021;-71
2022/06/11 05:30:32;;;;;;;5.53;1.70;;;21.40;62.00;;;;;;5051309;28;20603;-71
2022/06/11 05:33:00;;;;;;;5.63;1.83;;;21.40;61.60;;;;;;5048855;28;20514;-71
2022/06/11 05:35:29;;;;;;;6.20;2.20;;;21.40;61.50;;;;;;5049550;28;20032;-71
2022/06/11 05:37:58;;;;;;;8.45;2.15;;;21.50;61.50;;;;;;5051616;28;20037;-72
2022/06/11 05:40:28;;;;;;;7.20;2.45;;;21.50;61.20;;;;;;5045090;28;20100;-72
2022/06/11 05:42:53;;;;;;;6.88;1.95;;;21.70;61.40;;;;;;5048204;28;20380;-71
2022/06/11 05:45:27;;;;;;;6.63;1.77;;;21.70;61.20;;;;;;5047927;28;20043;-70
2022/06/11 05:47:55;;;;;;;6.63;1.90;;;21.70;61.20;;;;;;5048178;28;20048;-70
2022/06/11 05:50:24;;;;;;;6.13;1.70;;;21.70;61.00;;;;;;5047436;28;20013;-69
2022/06/11 05:52:52;;;;;;;7.63;1.67;;;21.70;61.20;;;;;;5046846;28;20052;-70
2022/06/11 05:55:21;;;;;;;5.55;1.73;;;21.70;61.20;;;;;;5047567;28;20082;-70
2022/06/11 05:57:48;;;;;;;5.78;1.70;;;21.70;61.30;;;;;;5048873;28;20108;-70
2022/06/11 06:00:17;;;;;;;4.30;1.65;;;21.70;61.20;;;;;;5057915;28;20025;-70
2022/06/11 06:02:44;;;;;;;6.32;2.00;;;21.60;61.20;;;;;;5054229;28;20099;-69
2022/06/11 06:05:14;;;;;;;5.40;1.50;;;21.50;61.50;;;;;;5054377;28;20017;-71
2022/06/11 06:07:40;;;;;;;5.55;1.85;;;21.50;61.70;;;;;;5052924;28;20102;-69
2022/06/11 06:10:06;;;;;;;6.97;1.80;;;21.50;61.60;;;;;;5053455;28;20028;-70
2022/06/11 06:12:33;;;;;;;5.90;1.90;;;21.50;61.70;;;;;;5047103;28;20048;-69
2022/06/11 06:15:09;;;;;;;8.30;2.22;;;21.50;61.60;;;;;;5048713;28;20112;-69
2022/06/11 06:17:35;;;;;;;9.15;2.03;;;21.60;61.40;;;;;;5053110;28;20155;-69
2022/06/11 06:20:01;;;;;;;7.03;2.30;;;21.50;61.50;;;;;;5045125;28;20029;-68
2022/06/11 06:22:26;;;;;;;8.85;2.55;;;21.50;61.00;;;;;;5054213;28;20032;-69
2022/06/11 06:24:52;;;;;;;7.57;2.08;;;21.30;60.60;;;;;;5045534;28;20672;-67
2022/06/11 06:27:18;;;;;;;8.80;2.38;;;21.40;61.00;;;;;;5050037;28;20104;-68
2022/06/11 06:29:43;;;;;;;8.63;2.00;;;21.50;60.80;;;;;;5048572;28;20033;-68
2022/06/11 06:32:09;;;;;;;8.25;2.35;;;21.60;60.80;;;;;;5050336;28;20497;-67
2022/06/11 06:34:34;;;;;;;6.00;2.10;;;21.70;61.30;;;;;;5050047;28;20136;-67
2022/06/11 06:37:00;;;;;;;5.35;1.67;;;21.90;60.50;;;;;;5050330;28;20033;-67
2022/06/11 06:39:25;;;;;;;8.88;2.00;;;22.20;60.30;;;;;;5049323;28;20025;-67
2022/06/11 06:41:51;;;;;;;7.10;1.95;;;22.20;60.00;;;;;;5048383;28;20037;-69
2022/06/11 06:44:16;;;;;;;8.82;2.40;;;22.30;59.60;;;;;;5046604;28;20488;-68
2022/06/11 06:46:43;;;;;;;8.32;2.28;;;22.30;59.40;;;;;;5047708;28;20434;-69
2022/06/11 06:49:09;;;;;;;8.35;2.35;;;22.30;59.00;;;;;;5047150;28;20029;-68
2022/06/11 06:51:35;;;;;;;7.65;2.22;;;22.30;58.90;;;;;;5047185;28;20059;-69
2022/06/11 06:54:01;;;;;;;6.57;2.10;;;22.30;58.50;;;;;;5048497;28;20039;-67
2022/06/11 06:56:31;;;;;;;7.22;2.30;;;22.40;58.50;;;;;;5047861;28;20032;-66
2022/06/11 06:58:57;;;;;;;9.00;2.38;;;22.40;58.40;;;;;;5047510;28;20111;-66
2022/06/11 07:01:23;;;;;;;9.43;2.10;;;22.50;58.20;;;;;;5048289;28;20556;-66
2022/06/11 07:03:49;;;;;;;8.05;2.08;;;22.50;57.80;;;;;;5047410;28;20391;-66
2022/06/11 07:06:14;;;;;;;7.90;2.13;;;22.60;57.50;;;;;;5047200;28;20021;-67
2022/06/11 07:08:40;;;;;;;5.53;1.98;;;22.70;57.50;;;;;;5045885;28;20494;-66
2022/06/11 07:11:05;;;;;;;7.43;1.92;;;22.70;57.30;;;;;;5046277;28;20036;-66
2022/06/11 07:13:32;;;;;;;6.80;2.03;;;22.80;57.80;;;;;;5049084;28;20028;-66
2022/06/11 07:16:00;;;;;;;8.07;2.05;;;22.90;57.00;;;;;;5048086;28;20029;-66
2022/06/11 07:18:51;;;;;;;7.93;2.40;;;23.00;56.90;;;;;;5047727;28;20487;-66
2022/06/11 07:21:21;;;;;;;7.05;2.45;;;23.10;56.70;;;;;;5048056;28;20031;-68
2022/06/11 07:23:51;;;;;;;7.55;2.22;;;23.20;56.60;;;;;;5048259;28;20368;-67
2022/06/11 07:26:22;;;;;;;5.47;1.98;;;23.40;56.40;;;;;;5049119;28;20020;-67
2022/06/11 07:28:58;;;;;;;8.38;2.30;;;23.30;56.00;;;;;;5044399;28;20048;-67
2022/06/11 07:31:25;;;;;;;9.95;2.38;;;23.30;55.90;;;;;;5047755;28;20638;-66
2022/06/11 07:33:50;;;;;;;6.15;1.70;;;23.30;55.80;;;;;;5044778;28;20161;-67
2022/06/11 07:36:18;;;;;;;6.95;1.95;;;23.40;55.80;;;;;;5046552;28;20486;-67
2022/06/11 07:38:43;;;;;;;9.45;2.70;;;23.40;55.50;;;;;;5048465;28;20017;-67
2022/06/11 07:41:09;;;;;;;7.50;2.50;;;23.40;55.60;;;;;;5048113;28;20021;-66
2022/06/11 07:43:34;;;;;;;8.40;2.40;;;23.40;55.30;;;;;;5047518;28;20122;-68
2022/06/11 07:46:00;;;;;;;7.90;2.58;;;23.40;55.30;;;;;;5047684;28;20028;-68
2022/06/11 07:48:26;;;;;;;7.65;2.20;;;23.40;55.00;;;;;;5049166;28;20100;-68
2022/06/11 07:50:53;;;;;;;8.02;2.13;;;23.50;55.10;;;;;;5049457;28;20128;-68
2022/06/11 07:53:21;;;;;;;7.43;2.50;;;23.50;54.90;;;;;;5046125;28;20620;-68
2022/06/11 07:55:49;;;;;;;6.50;1.80;;;23.50;54.60;;;;;;5047304;28;20033;-68
2022/06/11 07:58:17;;;;;;;7.93;1.90;;;23.60;54.60;;;;;;5047321;28;20441;-68
2022/06/11 08:00:50;;;;;;;6.45;2.10;;;23.70;54.40;;;;;;5043694;28;20031;-68
2022/06/11 08:03:18;;;;;;;8.07;2.10;;;23.80;54.20;;;;;;5044142;28;20060;-67
2022/06/11 08:05:44;;;;;;;5.63;1.90;;;23.90;53.90;;;;;;5046613;28;20099;-68
2022/06/11 08:08:10;;;;;;;8.20;2.20;;;23.90;53.60;;;;;;5047292;28;20673;-68
2022/06/11 08:10:41;;;;;;;7.97;2.13;;;24.00;53.20;;;;;;5048724;28;20396;-67
2022/06/11 08:13:08;;;;;;;8.53;2.43;;;24.00;53.10;;;;;;5046732;28;20090;-67
2022/06/11 08:15:34;;;;;;;8.60;2.42;;;24.00;52.50;;;;;;5048234;28;20023;-67
2022/06/11 08:18:00;;;;;;;8.20;2.17;;;24.00;52.00;;;;;;5046646;28;20021;-67
2022/06/11 08:20:28;;;;;;;6.35;2.03;;;24.00;52.00;;;;;;5048492;28;20549;-67
2022/06/11 08:22:54;;;;;;;5.50;1.40;;;24.00;51.60;;;;;;5046642;28;20033;-67
2022/06/11 08:25:21;;;;;;;7.10;2.00;;;24.10;51.10;;;;;;5048252;28;20029;-67
2022/06/11 08:27:47;;;;;;;7.15;1.92;;;24.10;50.30;;;;;;5046882;28;20456;-67
2022/06/11 08:30:15;;;;;;;6.82;2.40;;;24.20;50.50;;;;;;5049392;28;20045;-67
2022/06/11 08:32:41;;;;;;;6.15;1.60;;;24.10;50.00;;;;;;5048334;28;20028;-67
2022/06/11 08:35:08;;;;;;;6.32;1.90;;;24.20;49.70;;;;;;5047843;28;20029;-67
2022/06/11 08:37:33;;;;;;;5.63;1.52;;;24.20;49.60;;;;;;5049314;28;20434;-66
2022/06/11 08:39:59;;;;;;;5.03;1.58;;;24.40;49.30;;;;;;5047024;28;20040;-67
2022/06/11 08:42:38;;;;;;;7.00;1.95;;;24.40;49.10;;;;;;5049287;28;20025;-67
2022/06/11 08:45:22;;;;;;;9.63;1.88;;;24.40;48.00;;;;;;5046086;28;20033;-67
2022/06/11 08:47:51;;;;;;;7.32;1.92;;;24.40;48.20;;;;;;5047813;28;20037;-67
2022/06/11 08:50:37;;;;;;;6.38;1.70;;;24.40;47.70;;;;;;5048866;28;20037;-67
2022/06/11 08:53:05;;;;;;;5.25;1.95;;;24.30;47.70;;;;;;5045730;28;20024;-67
2022/06/11 08:55:35;;;;;;;8.38;1.88;;;24.30;47.80;;;;;;5048701;28;20020;-67
2022/06/11 08:58:19;;;;;;;6.97;1.83;;;24.20;47.80;;;;;;5047956;28;20035;-67
2022/06/11 09:00:53;;;;;;;6.43;1.80;;;24.30;48.10;;;;;;5046899;28;20064;-67
2022/06/11 09:03:50;;;;;;;5.70;1.60;;;24.30;48.30;;;;;;5046560;28;20429;-67
2022/06/11 09:06:45;;;;;;;6.45;1.80;;;24.50;48.60;;;;;;5046149;28;20036;-67
2022/06/11 09:09:41;;;;;;;7.22;2.00;;;24.60;48.80;;;;;;5046791;28;20024;-67
2022/06/11 09:12:16;;;;;;;12.20;2.80;;;24.70;49.00;;;;;;5062688;28;20487;-67
2022/06/11 09:15:18;;;;;;;10.77;2.60;;;24.60;48.10;;;;;;5046318;28;20394;-66
2022/06/11 09:17:58;;;;;;;;;;;24.50;48.80;;;;;;5049196;28;20055;-67
2022/06/11 09:20:55;;;;;;;6.40;1.80;;;24.70;49.00;;;;;;5046071;28;19912;-67
2022/06/11 09:23:36;;;;;;;4.97;1.50;;;24.70;48.00;;;;;;5048373;28;20024;-67
2022/06/11 09:26:36;;;;;;;8.88;2.45;;;24.80;47.70;;;;;;5048398;28;20036;-67
2022/06/11 09:29:08;;;;;;;5.10;1.77;;;24.70;46.90;;;;;;5038226;28;20048;-67
2022/06/11 09:31:34;;;;;;;;;;;24.70;47.60;;;;;;5048472;28;20028;-68
2022/06/11 09:34:05;;;;;;;5.43;1.67;;;24.80;47.60;;;;;;5046324;28;20007;-67
2022/06/11 09:36:42;;;;;;;5.28;1.90;;;24.70;47.00;;;;;;5047377;28;20079;-67
2022/06/11 09:39:07;;;;;;;5.90;1.50;;;24.50;47.20;;;;;;5049816;28;20033;-67
2022/06/11 09:41:43;;;;;;;7.32;2.10;;;24.50;47.80;;;;;;5052069;28;20036;-67
2022/06/11 09:44:51;;;;;;;6.32;1.83;;;24.50;47.80;;;;;;5049964;28;20029;-67
2022/06/11 09:47:23;;;;;;;7.57;2.15;;;24.70;47.70;;;;;;5048795;28;20025;-67
2022/06/11 09:50:16;;;;;;;7.47;1.90;;;24.70;47.70;;;;;;5050316;28;20398;-67
2022/06/11 09:52:48;;;;;;;7.20;2.03;;;24.80;47.00;;;;;;5050294;28;20024;-67
2022/06/11 09:55:27;;;;;;;8.23;2.33;;;25.00;46.60;;;;;;5049472;28;20029;-67
2022/06/11 09:58:18;;;;;;;6.47;1.80;;;24.80;45.80;;;;;;5051689;28;20051;-67
2022/06/11 10:00:48;;;;;;;7.93;2.40;;;24.60;46.30;;;;;;5048256;28;20028;-67
2022/06/11 10:03:30;;;;;;;8.00;2.40;;;24.60;46.50;;;;;;5048629;28;20025;-68
2022/06/11 10:06:08;;;;;;;7.05;1.80;;;24.70;46.90;;;;;;5078107;28;20087;-68
2022/06/11 10:08:52;;;;;;;6.63;2.00;;;24.80;46.90;;;;;;5048714;28;20036;-67
2022/06/11 10:11:32;;;;;;;5.82;1.88;;;25.00;47.20;;;;;;5050341;28;21582;-67
2022/06/11 10:14:31;;;;;;;7.05;2.13;;;25.20;46.90;;;;;;5047832;28;20020;-67
2022/06/11 10:17:09;;;;;;;7.53;1.98;;;25.00;46.20;;;;;;5052068;28;20032;-67
2022/06/11 10:20:00;;;;;;;7.93;2.00;;;24.80;46.30;;;;;;5048887;28;20017;-67
2022/06/11 10:22:48;;;;;;;7.50;2.00;;;24.80;46.90;;;;;;5049982;28;20033;-67
2022/06/11 10:25:29;;;;;;;8.65;2.20;;;24.90;46.80;;;;;;5047527;28;20039;-67
2022/06/11 10:28:16;;;;;;;6.82;1.90;;;24.90;46.60;;;;;;5049854;28;20033;-68
2022/06/11 10:30:59;;;;;;;6.75;1.90;;;25.00;47.00;;;;;;5050769;28;20104;-67
2022/06/11 10:33:51;;;;;;;6.93;2.00;;;25.10;47.00;;;;;;5049380;28;20025;-67
2022/06/11 10:36:20;;;;;;;;;;;25.20;46.70;;;;;;5048020;28;20166;-67
2022/06/11 10:38:58;;;;;;;6.97;2.72;;;25.30;46.60;;;;;;5050317;28;19995;-67
2022/06/11 10:41:53;;;;;;;5.70;1.80;;;25.30;46.30;;;;;;5047417;28;20032;-69
2022/06/11 10:44:26;;;;;;;7.07;1.90;;;25.40;46.90;;;;;;5050911;28;20451;-68
2022/06/11 10:46:52;;;;;;;4.95;1.90;;;25.50;46.70;;;;;;5047608;28;20051;-69
2022/06/11 10:49:22;;;;;;;7.15;2.13;;;25.60;46.90;;;;;;5050423;28;20491;-68
2022/06/11 10:51:56;;;;;;;7.88;2.42;;;25.60;46.90;;;;;;5051145;28;20028;-68
2022/06/11 10:54:24;;;;;;;5.57;1.90;;;25.50;47.20;;;;;;5047864;28;20036;-67
2022/06/11 10:56:56;;;;;;;8.10;1.92;;;25.70;46.90;;;;;;5047501;28;20032;-68
2022/06/11 10:59:27;;;;;;;6.13;1.77;;;25.60;46.90;;;;;;5048102;28;20100;-68
2022/06/11 11:02:16;;;;;;;8.18;2.03;;;25.70;47.00;;;;;;5048686;28;20119;-68
2022/06/11 11:05:03;;;;;;;5.88;1.75;;;25.70;47.10;;;;;;5049383;28;20124;-68
2022/06/11 11:07:58;;;;;;;6.93;2.10;;;25.90;47.10;;;;;;5049548;28;20025;-67
2022/06/11 11:10:30;;;;;;;7.43;2.00;;;26.10;46.40;;;;;;5049184;28;20021;-68
2022/06/11 11:13:00;;;;;;;9.48;2.17;;;26.00;46.10;;;;;;5049009;28;20027;-68
2022/06/11 11:15:28;;;;;;;10.77;3.00;;;26.20;46.00;;;;;;5049445;28;20075;-68
2022/06/11 11:18:00;;;;;;;7.53;2.13;;;26.30;44.90;;;;;;5049474;28;20671;-68
2022/06/11 11:20:42;;;;;;;9.82;2.95;;;26.20;44.90;;;;;;5045286;28;20029;-68
2022/06/11 11:23:10;;;;;;;7.70;2.63;;;26.10;44.40;;;;;;5048996;28;20029;-68
2022/06/11 11:25:59;;;;;;;6.88;1.90;;;26.10;45.00;;;;;;5049167;28;20031;-67
2022/06/11 11:28:31;;;;;;;10.52;2.28;;;26.20;44.80;;;;;;5048822;28;20021;-67
2022/06/11 11:31:15;;;;;;;6.38;1.95;;;26.10;45.00;;;;;;5048096;28;20025;-67
2022/06/11 11:33:56;;;;;;;8.23;2.10;;;26.20;45.30;;;;;;5048232;28;20420;-67
2022/06/11 11:36:25;;;;;;;5.90;1.67;;;26.40;45.20;;;;;;5045875;28;20067;-67
2022/06/11 11:39:17;;;;;;;7.82;1.90;;;26.50;44.70;;;;;;5047960;28;20017;-67
2022/06/11 11:42:06;;;;;;;6.38;2.20;;;26.80;44.80;;;;;;5074829;28;20037;-67
2022/06/11 11:44:38;;;;;;;7.43;2.20;;;27.00;44.20;;;;;;5045598;28;20114;-67
2022/06/11 11:47:13;;;;;;;7.05;2.08;;;27.00;44.10;;;;;;5044537;28;20021;-67
2022/06/11 11:49:40;;;;;;;7.72;2.28;;;27.10;44.00;;;;;;5048797;28;20025;-66
2022/06/11 11:52:15;;;;;;;8.23;1.70;;;27.20;43.90;;;;;;5049077;28;20025;-67
2022/06/11 11:55:08;;;;;;;8.30;2.05;;;27.30;43.90;;;;;;5049770;28;20040;-67
2022/06/11 11:57:34;;;;;;;5.13;1.80;;;27.40;43.50;;;;;;5047113;28;20174;-67
2022/06/11 12:00:07;;;;;;;5.13;1.67;;;27.50;43.40;;;;;;5049370;28;20526;-67
2022/06/11 12:02:47;;;;;;;6.65;1.63;;;27.70;43.20;;;;;;5046677;28;20029;-67
2022/06/11 12:05:23;;;;;;;6.18;1.77;;;28.10;43.10;;;;;;5049492;28;20035;-67
2022/06/11 12:07:50;;;;;;;6.50;1.90;;;28.20;42.90;;;;;;5049149;28;20021;-66
2022/06/11 12:10:22;;;;;;;9.68;2.28;;;28.20;42.50;;;;;;5048888;28;20048;-67
2022/06/11 12:12:53;;;;;;;7.68;2.35;;;28.30;42.20;;;;;;5048416;28;20452;-67
2022/06/11 12:15:23;;;;;;;6.00;1.88;;;28.20;42.10;;;;;;5049404;28;20035;-68
2022/06/11 12:18:01;;;;;;;8.40;2.42;;;28.20;42.20;;;;;;5062177;28;20033;-67
2022/06/11 12:20:49;;;;;;;8.38;2.30;;;28.10;41.50;;;;;;5047431;28;20153;-67
2022/06/11 12:23:20;;;;;;;6.75;1.92;;;27.90;41.90;;;;;;5047330;28;20056;-68
2022/06/11 12:25:49;;;;;;;6.97;2.10;;;27.90;42.10;;;;;;5049250;28;20052;-68
2022/06/11 12:28:18;;;;;;;5.40;1.85;;;27.90;42.30;;;;;;5049022;28;20024;-68
2022/06/11 12:30:44;;;;;;;9.88;2.38;;;28.00;42.30;;;;;;5049019;28;20043;-67
2022/06/11 12:33:12;;;;;;;8.73;2.10;;;28.00;42.40;;;;;;5048089;28;20096;-68
2022/06/11 12:36:00;;;;;;;6.13;1.90;;;28.00;42.50;;;;;;5049200;28;20219;-68
2022/06/11 12:38:43;;;;;;;8.63;2.65;;;28.00;42.20;;;;;;5048018;28;20071;-67
2022/06/11 12:41:24;;;;;;;7.50;2.10;;;27.70;42.30;;;;;;5063875;28;20087;-68
2022/06/11 12:43:56;;;;;;;7.55;2.15;;;27.70;42.60;;;;;;5048895;28;20036;-68
2022/06/11 12:46:26;;;;;;;4.75;1.52;;;27.30;42.70;;;;;;5046715;28;20390;-68
2022/06/11 12:48:58;;;;;;;6.35;1.65;;;27.40;43.50;;;;;;5049042;28;20086;-68
2022/06/11 12:51:50;;;;;;;4.68;1.63;;;27.50;43.30;;;;;;5049904;28;20029;-68
2022/06/11 12:54:34;;;;;;;5.95;1.73;;;27.70;43.30;;;;;;5051967;28;20068;-68
2022/06/11 12:57:03;;;;;;;4.88;1.50;;;27.70;43.10;;;;;;5050082;28;20537;-69
2022/06/11 12:59:40;;;;;;;6.68;1.60;;;27.50;43.20;;;;;;5054198;28;20029;-68
2022/06/11 13:02:22;;;;;;;6.50;1.70;;;27.50;43.50;;;;;;5049744;28;20032;-68
2022/06/11 13:04:56;;;;;;;8.43;2.47;;;27.60;43.50;;;;;;5050867;28;20107;-68
2022/06/11 13:07:41;;;;;;;7.82;2.00;;;27.50;43.40;;;;;;5048709;28;20040;-69
2022/06/11 13:10:22;;;;;;;6.78;1.98;;;27.20;43.70;;;;;;5048063;28;20025;-69
2022/06/11 13:13:08;;;;;;;6.47;2.05;;;27.10;44.10;;;;;;5048819;28;20028;-68
2022/06/11 13:15:41;;;;;;;6.90;2.10;;;27.10;44.20;;;;;;5049153;28;20028;-68
2022/06/11 13:18:25;;;;;;;5.40;1.75;;;27.10;44.40;;;;;;5048264;28;20037;-67